5BL weather

Homer-Beluga Lake Seaplane Base
Homer, Alaska, United States

Public forecast

Using degrees Fahrenheit for public forecast. Weather courtesy of forecast.io.

Closest aviation weather report (METAR) to Homer-Beluga Lake Seaplane Base

Closest report is Homer Airport, 0.8 nm (1.4 km) E. Retrieved 2019/10/20 03:53 UTC (44 minutes ago):

PAHO 200353Z 00000KT 10SM CLR 04/03 A2954 RMK AO2 SLP003 T00440033

Closest aviation forecast (TAF) to Homer-Beluga Lake Seaplane Base

Closest forecast is Homer Airport, 0.8 nm (1.4 km) E. Retrieved 2019-10-20 00:45 UTC (4 hours ago):

TAF PAHO 192342Z 2000/2024 VRB03KT P6SM FEW035 BKN070 FM201800 VRB03KT P6SM VCSH SCT030 OVC050